sensor_id;sensor_type;location;lat;lon;timestamp;pressure;altitude;pressure_sealevel;temperature;humidity
69707;BME280;56975;55.726;37.566;2023-09-18T00:00:00;100260.0;;;12.0;82.5
69707;BME280;56975;55.726;37.566;2023-09-18T00:05:00;100260.0;;;12.0;82.1
69707;BME280;56975;55.726;37.566;2023-09-18T00:10:00;100270.0;;;12.1;81.7
69707;BME280;56975;55.726;37.566;2023-09-18T00:15:00;100260.0;;;12.2;81.2
69707;BME280;56975;55.726;37.566;2023-09-18T00:20:00;100270.0;;;12.2;81.1
69707;BME280;56975;55.726;37.566;2023-09-18T00:25:00;100260.0;;;12.3;80.5
69707;BME280;56975;55.726;37.566;2023-09-18T00:30:00;100260.0;;;12.4;80.0
69707;BME280;56975;55.726;37.566;2023-09-18T00:35:00;100270.0;;;12.4;80.1
69707;BME280;56975;55.726;37.566;2023-09-18T00:40:01;100270.0;;;12.4;79.8
69707;BME280;56975;55.726;37.566;2023-09-18T00:45:00;100270.0;;;12.5;79.1
69707;BME280;56975;55.726;37.566;2023-09-18T00:50:00;100270.0;;;12.6;79.4
69707;BME280;56975;55.726;37.566;2023-09-18T00:55:00;100260.0;;;12.6;79.2
69707;BME280;56975;55.726;37.566;2023-09-18T01:00:01;100260.0;;;12.7;79.0
69707;BME280;56975;55.726;37.566;2023-09-18T01:05:00;100260.0;;;12.8;78.5
69707;BME280;56975;55.726;37.566;2023-09-18T01:10:00;100250.0;;;12.9;78.4
69707;BME280;56975;55.726;37.566;2023-09-18T01:15:02;100250.0;;;12.9;78.5
69707;BME280;56975;55.726;37.566;2023-09-18T01:20:00;100240.0;;;12.9;78.5
69707;BME280;56975;55.726;37.566;2023-09-18T01:25:00;100240.0;;;13.0;77.8
69707;BME280;56975;55.726;37.566;2023-09-18T01:30:00;100240.0;;;12.9;78.3
69707;BME280;56975;55.726;37.566;2023-09-18T01:35:02;100230.0;;;12.9;78.1
69707;BME280;56975;55.726;37.566;2023-09-18T01:40:01;100230.0;;;12.9;78.1
69707;BME280;56975;55.726;37.566;2023-09-18T01:45:00;100230.0;;;12.9;78.3
69707;BME280;56975;55.726;37.566;2023-09-18T01:50:03;100220.0;;;13.0;77.9
69707;BME280;56975;55.726;37.566;2023-09-18T01:55:00;100220.0;;;12.9;78.3
69707;BME280;56975;55.726;37.566;2023-09-18T02:00:00;100220.0;;;12.8;78.7
69707;BME280;56975;55.726;37.566;2023-09-18T02:05:00;100210.0;;;12.8;79.1
69707;BME280;56975;55.726;37.566;2023-09-18T02:10:00;100210.0;;;12.9;78.7
69707;BME280;56975;55.726;37.566;2023-09-18T02:15:00;100200.0;;;12.8;79.0
69707;BME280;56975;55.726;37.566;2023-09-18T02:20:00;100200.0;;;12.9;78.9
69707;BME280;56975;55.726;37.566;2023-09-18T02:25:00;100190.0;;;12.8;79.3
69707;BME280;56975;55.726;37.566;2023-09-18T02:30:00;100200.0;;;12.9;78.9
69707;BME280;56975;55.726;37.566;2023-09-18T02:35:00;100200.0;;;12.8;79.4
69707;BME280;56975;55.726;37.566;2023-09-18T02:40:00;100200.0;;;12.8;79.3
69707;BME280;56975;55.726;37.566;2023-09-18T02:45:00;100190.0;;;12.6;80.0
69707;BME280;56975;55.726;37.566;2023-09-18T02:50:00;100190.0;;;12.5;80.8
69707;BME280;56975;55.726;37.566;2023-09-18T02:55:00;100190.0;;;12.7;80.0
69707;BME280;56975;55.726;37.566;2023-09-18T03:00:00;100190.0;;;12.8;79.9
69707;BME280;56975;55.726;37.566;2023-09-18T03:05:00;100190.0;;;12.8;80.0
69707;BME280;56975;55.726;37.566;2023-09-18T03:10:00;100190.0;;;12.7;80.3
69707;BME280;56975;55.726;37.566;2023-09-18T03:15:00;100190.0;;;12.8;79.9
69707;BME280;56975;55.726;37.566;2023-09-18T03:20:00;100190.0;;;12.8;80.4
69707;BME280;56975;55.726;37.566;2023-09-18T03:25:00;100190.0;;;12.9;80.0
69707;BME280;56975;55.726;37.566;2023-09-18T03:30:00;100190.0;;;12.8;81.0
69707;BME280;56975;55.726;37.566;2023-09-18T03:35:00;100190.0;;;12.9;80.9
69707;BME280;56975;55.726;37.566;2023-09-18T03:40:00;100190.0;;;12.8;81.4
69707;BME280;56975;55.726;37.566;2023-09-18T03:45:00;100200.0;;;13.0;80.4
69707;BME280;56975;55.726;37.566;2023-09-18T03:50:00;100190.0;;;13.2;79.5
69707;BME280;56975;55.726;37.566;2023-09-18T03:55:00;100190.0;;;12.9;81.0
69707;BME280;56975;55.726;37.566;2023-09-18T04:00:00;100190.0;;;13.0;80.6
69707;BME280;56975;55.726;37.566;2023-09-18T04:05:00;100190.0;;;12.9;80.8
69707;BME280;56975;55.726;37.566;2023-09-18T04:10:00;100190.0;;;13.0;80.7
69707;BME280;56975;55.726;37.566;2023-09-18T04:15:00;100180.0;;;13.3;79.3
69707;BME280;56975;55.726;37.566;2023-09-18T04:20:00;100180.0;;;13.3;79.7
69707;BME280;56975;55.726;37.566;2023-09-18T04:25:00;100180.0;;;13.3;79.7
69707;BME280;56975;55.726;37.566;2023-09-18T04:30:00;100180.0;;;13.6;78.7
69707;BME280;56975;55.726;37.566;2023-09-18T04:35:00;100180.0;;;13.5;79.1
69707;BME280;56975;55.726;37.566;2023-09-18T04:40:00;100180.0;;;13.3;79.9
69707;BME280;56975;55.726;37.566;2023-09-18T04:45:00;100170.0;;;13.9;77.4
69707;BME280;56975;55.726;37.566;2023-09-18T04:50:00;100170.0;;;13.9;77.7
69707;BME280;56975;55.726;37.566;2023-09-18T04:55:00;100170.0;;;13.8;78.3
69707;BME280;56975;55.726;37.566;2023-09-18T05:00:00;100180.0;;;13.9;78.0
69707;BME280;56975;55.726;37.566;2023-09-18T05:05:00;100170.0;;;14.1;77.3
69707;BME280;56975;55.726;37.566;2023-09-18T05:10:00;100160.0;;;14.1;77.7
69707;BME280;56975;55.726;37.566;2023-09-18T05:15:00;100180.0;;;14.2;77.1
69707;BME280;56975;55.726;37.566;2023-09-18T05:20:00;100170.0;;;14.3;76.4
69707;BME280;56975;55.726;37.566;2023-09-18T05:25:00;100190.0;;;14.0;78.1
69707;BME280;56975;55.726;37.566;2023-09-18T05:30:00;100190.0;;;14.2;77.9
69707;BME280;56975;55.726;37.566;2023-09-18T05:35:00;100190.0;;;14.3;77.6
69707;BME280;56975;55.726;37.566;2023-09-18T05:40:00;100190.0;;;14.4;77.0
69707;BME280;56975;55.726;37.566;2023-09-18T05:45:00;100190.0;;;14.3;77.5
69707;BME280;56975;55.726;37.566;2023-09-18T05:50:00;100200.0;;;14.8;75.3
69707;BME280;56975;55.726;37.566;2023-09-18T05:55:00;100190.0;;;14.7;75.8
69707;BME280;56975;55.726;37.566;2023-09-18T06:00:00;100190.0;;;14.8;76.2
69707;BME280;56975;55.726;37.566;2023-09-18T06:05:01;100200.0;;;15.1;74.4
69707;BME280;56975;55.726;37.566;2023-09-18T06:10:00;100180.0;;;15.1;74.4
69707;BME280;56975;55.726;37.566;2023-09-18T06:15:00;100180.0;;;14.9;76.0
69707;BME280;56975;55.726;37.566;2023-09-18T06:20:00;100180.0;;;15.8;72.8
69707;BME280;56975;55.726;37.566;2023-09-18T06:25:00;100180.0;;;15.6;73.3
69707;BME280;56975;55.726;37.566;2023-09-18T06:30:00;100180.0;;;16.1;71.0
69707;BME280;56975;55.726;37.566;2023-09-18T06:35:00;100200.0;;;16.2;70.8
69707;BME280;56975;55.726;37.566;2023-09-18T06:40:00;100200.0;;;16.4;69.3
69707;BME280;56975;55.726;37.566;2023-09-18T06:45:00;100200.0;;;16.2;69.9
69707;BME280;56975;55.726;37.566;2023-09-18T06:50:00;100200.0;;;16.0;70.9
69707;BME280;56975;55.726;37.566;2023-09-18T06:55:00;100200.0;;;16.5;69.0
69707;BME280;56975;55.726;37.566;2023-09-18T07:00:00;100200.0;;;16.5;68.6
69707;BME280;56975;55.726;37.566;2023-09-18T07:05:00;100210.0;;;16.3;69.4
69707;BME280;56975;55.726;37.566;2023-09-18T07:10:00;100210.0;;;16.5;68.9
69707;BME280;56975;55.726;37.566;2023-09-18T07:15:01;100220.0;;;16.8;68.2
69707;BME280;56975;55.726;37.566;2023-09-18T07:20:00;100230.0;;;16.5;68.9
69707;BME280;56975;55.726;37.566;2023-09-18T07:25:00;100230.0;;;16.6;68.9
69707;BME280;56975;55.726;37.566;2023-09-18T07:30:00;100240.0;;;16.6;68.2
69707;BME280;56975;55.726;37.566;2023-09-18T07:35:00;100240.0;;;16.5;69.0
69707;BME280;56975;55.726;37.566;2023-09-18T07:40:00;100240.0;;;16.7;68.4
69707;BME280;56975;55.726;37.566;2023-09-18T07:45:00;100250.0;;;16.6;68.6
69707;BME280;56975;55.726;37.566;2023-09-18T07:50:00;100250.0;;;16.7;68.4
69707;BME280;56975;55.726;37.566;2023-09-18T07:55:00;100250.0;;;16.8;69.0
69707;BME280;56975;55.726;37.566;2023-09-18T08:00:00;100260.0;;;17.2;66.9
69707;BME280;56975;55.726;37.566;2023-09-18T08:05:00;100240.0;;;17.0;67.8
69707;BME280;56975;55.726;37.566;2023-09-18T08:10:01;100240.0;;;17.1;67.4
69707;BME280;56975;55.726;37.566;2023-09-18T08:15:00;100250.0;;;17.3;66.4
69707;BME280;56975;55.726;37.566;2023-09-18T08:20:00;100250.0;;;17.2;66.7
69707;BME280;56975;55.726;37.566;2023-09-18T08:25:00;100260.0;;;17.3;66.2
69707;BME280;56975;55.726;37.566;2023-09-18T08:30:00;100260.0;;;17.4;66.5
69707;BME280;56975;55.726;37.566;2023-09-18T08:35:00;100260.0;;;17.2;66.6
69707;BME280;56975;55.726;37.566;2023-09-18T08:40:00;100250.0;;;17.4;66.6
69707;BME280;56975;55.726;37.566;2023-09-18T08:45:01;100260.0;;;18.0;64.2
69707;BME280;56975;55.726;37.566;2023-09-18T08:50:01;100240.0;;;17.7;65.3
69707;BME280;56975;55.726;37.566;2023-09-18T08:55:00;100240.0;;;17.8;65.3
69707;BME280;56975;55.726;37.566;2023-09-18T09:00:00;100240.0;;;17.5;66.4
69707;BME280;56975;55.726;37.566;2023-09-18T09:05:00;100250.0;;;17.5;66.6
69707;BME280;56975;55.726;37.566;2023-09-18T09:10:00;100240.0;;;17.7;66.2
69707;BME280;56975;55.726;37.566;2023-09-18T09:15:02;100250.0;;;17.4;67.7
69707;BME280;56975;55.726;37.566;2023-09-18T09:20:10;100250.0;;;17.6;67.0
69707;BME280;56975;55.726;37.566;2023-09-18T09:25:00;100260.0;;;17.5;67.8
69707;BME280;56975;55.726;37.566;2023-09-18T09:30:00;100260.0;;;17.0;69.8
69707;BME280;56975;55.726;37.566;2023-09-18T09:35:00;100270.0;;;17.4;68.7
69707;BME280;56975;55.726;37.566;2023-09-18T09:40:03;100280.0;;;17.1;69.1
69707;BME280;56975;55.726;37.566;2023-09-18T09:45:02;100260.0;;;16.1;74.0
69707;BME280;56975;55.726;37.566;2023-09-18T09:50:06;100250.0;;;16.2;75.7
69707;BME280;56975;55.726;37.566;2023-09-18T09:55:00;100250.0;;;16.3;76.6
69707;BME280;56975;55.726;37.566;2023-09-18T10:00:03;100250.0;;;16.5;75.5
69707;BME280;56975;55.726;37.566;2023-09-18T10:05:00;100260.0;;;16.6;76.7
69707;BME280;56975;55.726;37.566;2023-09-18T10:10:00;100270.0;;;17.4;72.8
69707;BME280;56975;55.726;37.566;2023-09-18T10:15:01;100270.0;;;17.8;72.7
69707;BME280;56975;55.726;37.566;2023-09-18T10:20:02;100270.0;;;17.4;72.7
69707;BME280;56975;55.726;37.566;2023-09-18T10:25:07;100270.0;;;17.8;71.0
69707;BME280;56975;55.726;37.566;2023-09-18T10:30:00;100270.0;;;17.2;73.7
69707;BME280;56975;55.726;37.566;2023-09-18T10:35:00;100270.0;;;17.9;71.1
69707;BME280;56975;55.726;37.566;2023-09-18T10:40:00;100270.0;;;17.8;71.4
69707;BME280;56975;55.726;37.566;2023-09-18T10:45:00;100280.0;;;17.6;72.1
69707;BME280;56975;55.726;37.566;2023-09-18T10:50:01;100270.0;;;17.9;71.0
69707;BME280;56975;55.726;37.566;2023-09-18T10:55:00;100260.0;;;18.2;69.8
69707;BME280;56975;55.726;37.566;2023-09-18T11:00:00;100260.0;;;18.4;71.0
69707;BME280;56975;55.726;37.566;2023-09-18T11:05:02;100260.0;;;19.5;64.7
69707;BME280;56975;55.726;37.566;2023-09-18T11:15:00;100250.0;;;19.0;67.7
69707;BME280;56975;55.726;37.566;2023-09-18T11:20:04;100260.0;;;20.1;62.9
69707;BME280;56975;55.726;37.566;2023-09-18T11:30:00;100260.0;;;21.9;55.8
69707;BME280;56975;55.726;37.566;2023-09-18T11:35:06;100270.0;;;23.1;53.4
69707;BME280;56975;55.726;37.566;2023-09-18T11:40:00;100270.0;;;23.1;52.0
69707;BME280;56975;55.726;37.566;2023-09-18T11:45:00;100270.0;;;23.1;50.2
69707;BME280;56975;55.726;37.566;2023-09-18T11:50:00;100270.0;;;22.3;52.4
69707;BME280;56975;55.726;37.566;2023-09-18T11:55:00;100280.0;;;22.3;53.2
69707;BME280;56975;55.726;37.566;2023-09-18T12:00:00;100270.0;;;21.9;54.5
69707;BME280;56975;55.726;37.566;2023-09-18T12:05:10;100280.0;;;22.5;51.8
69707;BME280;56975;55.726;37.566;2023-09-18T12:10:00;100270.0;;;20.6;57.0
69707;BME280;56975;55.726;37.566;2023-09-18T12:15:01;100270.0;;;20.9;56.6
69707;BME280;56975;55.726;37.566;2023-09-18T12:20:00;100270.0;;;19.6;60.3
69707;BME280;56975;55.726;37.566;2023-09-18T12:25:10;100280.0;;;19.7;60.7
69707;BME280;56975;55.726;37.566;2023-09-18T12:30:00;100270.0;;;18.8;63.9
69707;BME280;56975;55.726;37.566;2023-09-18T12:35:00;100270.0;;;19.3;62.9
69707;BME280;56975;55.726;37.566;2023-09-18T12:40:00;100270.0;;;19.2;63.6
69707;BME280;56975;55.726;37.566;2023-09-18T12:45:00;100280.0;;;19.2;63.1
69707;BME280;56975;55.726;37.566;2023-09-18T12:50:02;100280.0;;;18.8;64.6
69707;BME280;56975;55.726;37.566;2023-09-18T12:55:00;100270.0;;;18.6;66.0
69707;BME280;56975;55.726;37.566;2023-09-18T13:00:08;100280.0;;;19.2;62.8
69707;BME280;56975;55.726;37.566;2023-09-18T13:05:00;100270.0;;;19.1;63.2
69707;BME280;56975;55.726;37.566;2023-09-18T13:10:02;100270.0;;;18.0;67.4
69707;BME280;56975;55.726;37.566;2023-09-18T13:15:02;100280.0;;;18.5;66.1
69707;BME280;56975;55.726;37.566;2023-09-18T13:20:05;100270.0;;;18.2;66.8
69707;BME280;56975;55.726;37.566;2023-09-18T13:25:00;100270.0;;;17.8;68.4
69707;BME280;56975;55.726;37.566;2023-09-18T13:30:00;100280.0;;;17.7;69.4
69707;BME280;56975;55.726;37.566;2023-09-18T13:35:00;100270.0;;;17.0;73.1
69707;BME280;56975;55.726;37.566;2023-09-18T13:40:00;100270.0;;;17.5;70.9
69707;BME280;56975;55.726;37.566;2023-09-18T13:45:01;100270.0;;;18.1;69.8
69707;BME280;56975;55.726;37.566;2023-09-18T13:50:01;100270.0;;;18.8;66.9
69707;BME280;56975;55.726;37.566;2023-09-18T13:55:01;100260.0;;;19.7;64.5
69707;BME280;56975;55.726;37.566;2023-09-18T14:00:01;100260.0;;;21.0;60.3
69707;BME280;56975;55.726;37.566;2023-09-18T14:10:00;100260.0;;;20.3;60.2
69707;BME280;56975;55.726;37.566;2023-09-18T14:15:00;100260.0;;;18.8;64.8
69707;BME280;56975;55.726;37.566;2023-09-18T14:20:00;100260.0;;;18.8;64.7
69707;BME280;56975;55.726;37.566;2023-09-18T14:45:00;100250.0;;;19.1;63.6
69707;BME280;56975;55.726;37.566;2023-09-18T14:50:00;100250.0;;;19.2;63.1
69707;BME280;56975;55.726;37.566;2023-09-18T14:55:00;100250.0;;;19.2;63.1
69707;BME280;56975;55.726;37.566;2023-09-18T15:00:00;100250.0;;;19.2;63.0
69707;BME280;56975;55.726;37.566;2023-09-18T15:10:00;100250.0;;;18.9;63.5
69707;BME280;56975;55.726;37.566;2023-09-18T15:15:00;100250.0;;;18.5;65.3
69707;BME280;56975;55.726;37.566;2023-09-18T15:20:00;100250.0;;;18.1;66.8
69707;BME280;56975;55.726;37.566;2023-09-18T15:25:00;100260.0;;;17.7;68.5
69707;BME280;56975;55.726;37.566;2023-09-18T15:30:00;100250.0;;;17.1;71.0
69707;BME280;56975;55.726;37.566;2023-09-18T15:35:00;100260.0;;;16.4;73.7
69707;BME280;56975;55.726;37.566;2023-09-18T15:40:00;100260.0;;;16.1;75.5
69707;BME280;56975;55.726;37.566;2023-09-18T15:50:00;100260.0;;;15.4;77.9
69707;BME280;56975;55.726;37.566;2023-09-18T15:55:00;100260.0;;;15.3;79.1
69707;BME280;56975;55.726;37.566;2023-09-18T16:00:00;100260.0;;;15.1;80.1
69707;BME280;56975;55.726;37.566;2023-09-18T16:05:01;100260.0;;;15.0;80.8
69707;BME280;56975;55.726;37.566;2023-09-18T16:15:00;100260.0;;;14.7;82.9
69707;BME280;56975;55.726;37.566;2023-09-18T16:20:00;100260.0;;;14.6;84.3
69707;BME280;56975;55.726;37.566;2023-09-18T16:25:00;100260.0;;;14.4;85.7
69707;BME280;56975;55.726;37.566;2023-09-18T16:30:00;100260.0;;;14.3;86.1
69707;BME280;56975;55.726;37.566;2023-09-18T16:35:00;100270.0;;;14.3;86.7
69707;BME280;56975;55.726;37.566;2023-09-18T16:40:00;100260.0;;;14.1;87.6
69707;BME280;56975;55.726;37.566;2023-09-18T16:45:00;100260.0;;;14.1;88.3
69707;BME280;56975;55.726;37.566;2023-09-18T16:50:00;100260.0;;;13.9;89.1
69707;BME280;56975;55.726;37.566;2023-09-18T16:55:00;100260.0;;;13.8;89.4
69707;BME280;56975;55.726;37.566;2023-09-18T17:00:00;100260.0;;;13.7;89.6
69707;BME280;56975;55.726;37.566;2023-09-18T17:05:00;100260.0;;;13.7;91.3
69707;BME280;56975;55.726;37.566;2023-09-18T17:10:00;100260.0;;;13.6;92.1
69707;BME280;56975;55.726;37.566;2023-09-18T17:15:00;100260.0;;;13.4;93.0
69707;BME280;56975;55.726;37.566;2023-09-18T17:20:00;100260.0;;;13.3;92.0
69707;BME280;56975;55.726;37.566;2023-09-18T17:25:00;100270.0;;;13.2;91.7
69707;BME280;56975;55.726;37.566;2023-09-18T17:30:00;100270.0;;;13.2;92.0
69707;BME280;56975;55.726;37.566;2023-09-18T17:35:00;100270.0;;;13.1;92.7
69707;BME280;56975;55.726;37.566;2023-09-18T17:40:00;100280.0;;;13.1;92.3
69707;BME280;56975;55.726;37.566;2023-09-18T17:45:00;100270.0;;;13.0;92.1
69707;BME280;56975;55.726;37.566;2023-09-18T17:50:00;100280.0;;;12.9;92.2
69707;BME280;56975;55.726;37.566;2023-09-18T17:55:01;100280.0;;;12.9;93.1
69707;BME280;56975;55.726;37.566;2023-09-18T18:00:00;100280.0;;;12.8;93.8
69707;BME280;56975;55.726;37.566;2023-09-18T18:05:00;100290.0;;;12.8;94.0
69707;BME280;56975;55.726;37.566;2023-09-18T18:10:00;100300.0;;;12.7;95.6
69707;BME280;56975;55.726;37.566;2023-09-18T18:15:00;100290.0;;;12.7;96.4
69707;BME280;56975;55.726;37.566;2023-09-18T18:25:00;100290.0;;;12.6;97.4
69707;BME280;56975;55.726;37.566;2023-09-18T18:30:00;100290.0;;;12.6;97.9
69707;BME280;56975;55.726;37.566;2023-09-18T18:35:00;100290.0;;;12.6;97.3
69707;BME280;56975;55.726;37.566;2023-09-18T18:40:00;100290.0;;;12.5;96.5
69707;BME280;56975;55.726;37.566;2023-09-18T18:45:00;100290.0;;;12.4;96.3
69707;BME280;56975;55.726;37.566;2023-09-18T18:50:00;100280.0;;;12.4;96.1
69707;BME280;56975;55.726;37.566;2023-09-18T18:55:00;100270.0;;;12.4;95.9
69707;BME280;56975;55.726;37.566;2023-09-18T19:00:00;100270.0;;;12.3;95.8
69707;BME280;56975;55.726;37.566;2023-09-18T19:05:00;100270.0;;;12.3;95.7
69707;BME280;56975;55.726;37.566;2023-09-18T19:10:00;100270.0;;;12.3;95.8
69707;BME280;56975;55.726;37.566;2023-09-18T19:15:01;100270.0;;;12.3;96.0
69707;BME280;56975;55.726;37.566;2023-09-18T19:20:00;100270.0;;;12.3;96.2
69707;BME280;56975;55.726;37.566;2023-09-18T19:25:00;100260.0;;;12.3;96.0
69707;BME280;56975;55.726;37.566;2023-09-18T19:30:00;100270.0;;;12.2;96.1
69707;BME280;56975;55.726;37.566;2023-09-18T19:35:00;100270.0;;;12.2;95.9
69707;BME280;56975;55.726;37.566;2023-09-18T19:40:00;100270.0;;;12.1;96.8
69707;BME280;56975;55.726;37.566;2023-09-18T19:45:00;100270.0;;;12.1;96.7
69707;BME280;56975;55.726;37.566;2023-09-18T19:50:00;100270.0;;;12.0;97.4
69707;BME280;56975;55.726;37.566;2023-09-18T19:55:00;100270.0;;;12.0;96.8
69707;BME280;56975;55.726;37.566;2023-09-18T20:00:00;100270.0;;;11.9;97.1
69707;BME280;56975;55.726;37.566;2023-09-18T20:05:00;100280.0;;;11.9;98.2
69707;BME280;56975;55.726;37.566;2023-09-18T20:20:00;100280.0;;;11.9;98.0
69707;BME280;56975;55.726;37.566;2023-09-18T20:25:01;100270.0;;;11.9;100.0
69707;BME280;56975;55.726;37.566;2023-09-18T20:30:00;100270.0;;;12.0;100.0
69707;BME280;56975;55.726;37.566;2023-09-18T20:35:00;100260.0;;;12.0;100.0
69707;BME280;56975;55.726;37.566;2023-09-18T20:40:00;100260.0;;;12.1;100.0
69707;BME280;56975;55.726;37.566;2023-09-18T20:45:00;100270.0;;;12.2;100.0
69707;BME280;56975;55.726;37.566;2023-09-18T20:50:00;100260.0;;;12.1;100.0
69707;BME280;56975;55.726;37.566;2023-09-18T20:55:00;100270.0;;;12.1;100.0
69707;BME280;56975;55.726;37.566;2023-09-18T21:00:00;100270.0;;;12.1;100.0
69707;BME280;56975;55.726;37.566;2023-09-18T21:05:00;100260.0;;;12.1;100.0
69707;BME280;56975;55.726;37.566;2023-09-18T21:10:00;100260.0;;;12.2;100.0
69707;BME280;56975;55.726;37.566;2023-09-18T21:15:00;100260.0;;;12.2;100.0
69707;BME280;56975;55.726;37.566;2023-09-18T21:20:00;100260.0;;;12.1;100.0
69707;BME280;56975;55.726;37.566;2023-09-18T21:25:00;100270.0;;;12.2;100.0
69707;BME280;56975;55.726;37.566;2023-09-18T21:30:00;100260.0;;;12.2;100.0
69707;BME280;56975;55.726;37.566;2023-09-18T21:35:00;100260.0;;;12.1;100.0
69707;BME280;56975;55.726;37.566;2023-09-18T21:40:00;100270.0;;;12.1;100.0
69707;BME280;56975;55.726;37.566;2023-09-18T21:45:00;100280.0;;;12.0;100.0
69707;BME280;56975;55.726;37.566;2023-09-18T21:50:00;100280.0;;;11.9;100.0
69707;BME280;56975;55.726;37.566;2023-09-18T21:55:00;100280.0;;;11.9;100.0
69707;BME280;56975;55.726;37.566;2023-09-18T22:00:00;100280.0;;;11.8;100.0
69707;BME280;56975;55.726;37.566;2023-09-18T22:05:00;100280.0;;;11.8;100.0
69707;BME280;56975;55.726;37.566;2023-09-18T22:10:00;100280.0;;;11.7;100.0
69707;BME280;56975;55.726;37.566;2023-09-18T22:15:05;100270.0;;;11.8;100.0
69707;BME280;56975;55.726;37.566;2023-09-18T22:20:00;100280.0;;;11.8;100.0
69707;BME280;56975;55.726;37.566;2023-09-18T22:25:00;100280.0;;;11.9;100.0
69707;BME280;56975;55.726;37.566;2023-09-18T22:30:06;100280.0;;;11.9;100.0
69707;BME280;56975;55.726;37.566;2023-09-18T22:35:00;100270.0;;;12.0;100.0
69707;BME280;56975;55.726;37.566;2023-09-18T22:55:00;100270.0;;;12.2;100.0
69707;BME280;56975;55.726;37.566;2023-09-18T23:00:01;100270.0;;;12.4;100.0
69707;BME280;56975;55.726;37.566;2023-09-18T23:05:01;100270.0;;;12.5;100.0
69707;BME280;56975;55.726;37.566;2023-09-18T23:10:00;100260.0;;;12.6;100.0
69707;BME280;56975;55.726;37.566;2023-09-18T23:15:00;100260.0;;;12.5;100.0
69707;BME280;56975;55.726;37.566;2023-09-18T23:20:00;100260.0;;;12.6;100.0
69707;BME280;56975;55.726;37.566;2023-09-18T23:25:00;100270.0;;;12.6;100.0
69707;BME280;56975;55.726;37.566;2023-09-18T23:30:00;100270.0;;;12.7;100.0
69707;BME280;56975;55.726;37.566;2023-09-18T23:35:00;100270.0;;;12.7;100.0
69707;BME280;56975;55.726;37.566;2023-09-18T23:40:00;100270.0;;;12.7;100.0
69707;BME280;56975;55.726;37.566;2023-09-18T23:45:00;100260.0;;;12.7;100.0
69707;BME280;56975;55.726;37.566;2023-09-18T23:50:00;100270.0;;;12.7;99.8
69707;BME280;56975;55.726;37.566;2023-09-18T23:55:00;100270.0;;;12.6;100.0
